Time;durP1;ratioP1;P1;durP2;ratioP2;P2;SDS_P1;SDS_P2;PMS_P1;PMS_P2;Temp;Humidity;BMP_temperature;BMP_pressure;BME280_temperature;BME280_humidity;BME280_pressure;Samples;Min_cycle;Max_cycle;Signal;HPM_P1;HPM_P2
2024/03/18 00:01:03;;;;;;;1.67;0.35;;;;;;;4.00;45.35;101791.78;5019509;28;20050;-73
2024/03/18 00:03:29;;;;;;;3.38;0.30;;;;;;;3.99;45.73;101786.63;5012796;28;20344;-73
2024/03/18 00:05:55;;;;;;;8.32;0.52;;;;;;;4.28;45.45;101791.00;5027418;28;20063;-73
2024/03/18 00:08:23;;;;;;;5.97;0.40;;;;;;;4.25;45.24;101786.66;5025231;28;20098;-72
2024/03/18 00:10:48;;;;;;;4.25;0.70;;;;;;;4.00;45.72;101786.59;5028127;28;20524;-73
2024/03/18 00:13:14;;;;;;;3.50;0.77;;;;;;;4.26;45.40;101774.59;5027495;28;20566;-73
2024/03/18 00:15:39;;;;;;;6.63;0.60;;;;;;;4.16;45.84;101772.00;5032688;28;20037;-73
2024/03/18 00:18:05;;;;;;;2.88;0.65;;;;;;;3.90;46.42;101784.03;5023620;28;20076;-69
2024/03/18 00:20:30;;;;;;;4.85;0.57;;;;;;;3.83;47.11;101775.38;5032869;28;20032;-68
2024/03/18 00:22:57;;;;;;;4.32;0.32;;;;;;;3.98;46.64;101785.78;5017318;28;20127;-70
2024/03/18 00:25:25;;;;;;;1.95;0.65;;;;;;;3.99;46.86;101777.13;5029148;28;20032;-70
2024/03/18 00:27:50;;;;;;;8.65;0.77;;;;;;;3.88;47.20;101773.66;5025040;28;20040;-70
2024/03/18 00:30:16;;;;;;;7.15;0.60;;;;;;;3.94;46.83;101773.69;5028437;28;20037;-70
2024/03/18 00:32:41;;;;;;;2.38;0.45;;;;;;;4.11;46.62;101775.44;5029070;28;20045;-71
2024/03/18 00:35:13;;;;;;;3.85;0.73;;;;;;;3.95;46.51;101772.81;5034447;28;20040;-68
2024/03/18 00:37:39;;;;;;;2.78;0.77;;;;;;;3.94;46.38;101772.78;5032135;28;20095;-70
2024/03/18 00:40:06;;;;;;;3.65;0.38;;;;;;;4.14;46.37;101773.72;5023440;28;20036;-70
2024/03/18 00:42:34;;;;;;;6.18;0.52;;;;;;;4.12;46.28;101769.38;5029944;28;20040;-70
2024/03/18 00:45:00;;;;;;;5.97;0.98;;;;;;;4.20;46.03;101763.34;5025360;28;20102;-70
2024/03/18 00:47:28;;;;;;;2.60;0.65;;;;;;;4.22;45.89;101765.94;5029782;28;20498;-71
2024/03/18 00:49:56;;;;;;;3.35;0.68;;;;;;;4.31;45.76;101755.59;5021176;28;20563;-67
2024/03/18 00:52:22;;;;;;;2.13;0.65;;;;;;;4.10;46.48;101758.19;5035301;28;20121;-70
2024/03/18 00:54:47;;;;;;;5.40;1.85;;;;;;;4.06;46.06;101753.88;5024643;28;20033;-70
2024/03/18 00:57:12;;;;;;;6.05;0.57;;;;;;;4.17;46.23;101746.97;5027811;28;20139;-72
2024/03/18 00:59:38;;;;;;;4.95;0.88;;;;;;;4.20;45.73;101750.41;5028722;28;20055;-70
2024/03/18 01:02:04;;;;;;;5.20;0.60;;;;;;;4.06;46.24;101748.69;5040151;28;20381;-71
2024/03/18 01:04:34;;;;;;;5.53;1.10;;;;;;;3.73;46.69;101745.19;5030079;28;20071;-71
2024/03/18 01:07:01;;;;;;;2.13;0.47;;;;;;;3.89;46.62;101734.00;5021377;28;20028;-72
2024/03/18 01:09:28;;;;;;;6.03;0.75;;;;;;;4.05;46.33;101739.19;5029682;28;20067;-72
2024/03/18 01:11:55;;;;;;;2.63;0.32;;;;;;;4.15;46.07;101738.34;5023718;28;20028;-75
2024/03/18 01:14:21;;;;;;;2.03;0.43;;;;;;;4.04;46.25;101747.84;5030209;28;20040;-75
2024/03/18 01:16:47;;;;;;;8.32;0.70;;;;;;;4.04;46.07;101747.84;5031031;28;20051;-72
2024/03/18 01:19:12;;;;;;;6.32;0.70;;;;;;;3.90;46.19;101735.75;5038635;28;20123;-73
2024/03/18 01:21:37;;;;;;;6.03;0.88;;;;;;;3.86;46.58;101736.59;5027731;28;20720;-76
2024/03/18 01:24:03;;;;;;;6.32;0.70;;;;;;;3.82;46.60;101732.25;5010336;28;20040;-76
2024/03/18 01:26:29;;;;;;;2.33;0.63;;;;;;;3.73;46.81;101722.75;5025354;28;20047;-77
2024/03/18 01:28:57;;;;;;;7.00;0.55;;;;;;;3.91;46.25;101716.75;5025186;28;20155;-74
2024/03/18 01:31:22;;;;;;;6.60;0.47;;;;;;;3.91;46.09;101718.50;5031061;28;20035;-72
2024/03/18 01:33:50;;;;;;;3.55;0.90;;;;;;;3.79;46.01;101707.28;5025145;28;20580;-74
2024/03/18 01:36:15;;;;;;;4.07;0.52;;;;;;;3.70;46.29;101709.00;5033232;28;20029;-73
2024/03/18 01:38:42;;;;;;;2.55;1.00;;;;;;;3.79;46.20;101709.00;5026474;28;20041;-72
2024/03/18 01:41:07;;;;;;;3.72;0.35;;;;;;;3.84;45.96;101711.59;5012243;28;20382;-71
2024/03/18 01:43:42;;;;;;;4.82;1.30;;;;;;;3.72;46.18;101704.69;5026623;28;20835;-72
2024/03/18 01:46:17;;;;;;;3.00;0.30;;;;;;;3.96;46.14;101707.31;5016474;28;20068;-72
2024/03/18 01:48:46;;;;;;;3.88;0.65;;;;;;;4.04;45.71;101712.47;5029530;28;20371;-72
2024/03/18 01:51:14;;;;;;;6.28;1.27;;;;;;;3.94;46.24;101703.84;5062026;28;20509;-75
2024/03/18 01:53:43;;;;;;;11.45;0.85;;;;;;;3.88;46.28;101709.00;5019840;28;20049;-72
2024/03/18 01:56:15;;;;;;;12.27;1.50;;;;;;;3.86;46.06;101702.13;5031528;28;20045;-72
2024/03/18 01:58:45;;;;;;;3.72;0.70;;;;;;;3.98;45.65;101704.69;5026770;28;20041;-72
2024/03/18 02:01:13;;;;;;;2.70;0.40;;;;;;;4.02;45.95;101699.53;5031011;28;20056;-72
2024/03/18 02:03:41;;;;;;;7.65;0.80;;;;;;;3.85;46.22;101687.44;5026480;28;20040;-72
2024/03/18 02:06:10;;;;;;;8.88;1.13;;;;;;;3.82;46.21;101693.47;5012561;28;21153;-72
2024/03/18 02:08:38;;;;;;;3.83;0.52;;;;;;;3.77;46.66;101690.03;5026021;28;20068;-66
2024/03/18 02:11:04;;;;;;;6.72;1.20;;;;;;;3.87;46.24;101691.75;5027657;28;20036;-67
2024/03/18 02:13:31;;;;;;;2.45;0.20;;;;;;;3.86;46.06;101687.44;5024260;28;20041;-74
2024/03/18 02:16:00;;;;;;;1.98;0.38;;;;;;;3.83;46.55;101678.81;5033825;28;20665;-71
2024/03/18 02:18:28;;;;;;;8.60;0.85;;;;;;;3.96;46.23;101681.44;5020051;28;20487;-70
2024/03/18 02:20:56;;;;;;;8.85;0.73;;;;;;;3.67;46.55;101672.75;5027930;28;20032;-71
2024/03/18 02:23:26;;;;;;;5.40;0.80;;;;;;;3.89;46.36;101669.34;5030016;28;20037;-73
2024/03/18 02:25:51;;;;;;;5.13;0.65;;;;;;;3.53;46.99;101671.00;5036812;28;20017;-70
2024/03/18 02:28:17;;;;;;;2.85;0.60;;;;;;;3.76;46.65;101668.50;5033992;28;20058;-72
2024/03/18 02:30:43;;;;;;;5.38;0.60;;;;;;;3.66;47.02;101668.47;5014367;28;20036;-72
2024/03/18 02:33:08;;;;;;;7.80;1.27;;;;;;;3.91;46.91;101672.78;5027595;28;20049;-70
2024/03/18 02:35:33;;;;;;;2.63;0.55;;;;;;;3.84;46.77;101660.72;5026008;28;20477;-73
2024/03/18 02:37:59;;;;;;;12.30;1.48;;;;;;;3.84;46.69;101667.63;5034871;28;20582;-71
2024/03/18 02:40:27;;;;;;;4.80;0.60;;;;;;;3.64;47.15;101665.88;5029034;28;20040;-70
2024/03/18 02:42:55;;;;;;;3.08;0.70;;;;;;;3.48;47.36;101662.41;5018803;28;20422;-72
2024/03/18 02:45:22;;;;;;;4.10;0.60;;;;;;;3.64;47.23;101667.59;5033475;28;20043;-70
2024/03/18 02:47:50;;;;;;;2.28;0.60;;;;;;;3.43;47.35;101658.94;5023818;28;20053;-72
2024/03/18 02:50:18;;;;;;;13.35;1.17;;;;;;;3.54;46.97;101654.66;5018211;28;20036;-72
2024/03/18 02:52:46;;;;;;;8.68;1.02;;;;;;;3.72;46.67;101650.38;5030074;28;20123;-69
2024/03/18 02:55:12;;;;;;;7.03;0.82;;;;;;;3.48;47.63;101649.47;5025540;28;21366;-70
2024/03/18 02:57:38;;;;;;;2.95;0.68;;;;;;;3.73;47.20;101655.53;5032059;28;20122;-72
2024/03/18 03:00:08;;;;;;;3.33;0.50;;;;;;;3.84;46.75;101649.53;5028743;28;20039;-70
2024/03/18 03:02:36;;;;;;;3.92;0.55;;;;;;;3.65;46.91;101653.78;5030813;28;20052;-72
2024/03/18 03:05:04;;;;;;;1.85;0.60;;;;;;;3.67;47.01;101652.06;5030321;28;20936;-70
2024/03/18 03:07:32;;;;;;;9.45;0.85;;;;;;;3.59;47.21;101649.50;5010361;28;20624;-72
2024/03/18 03:10:00;;;;;;;5.93;1.30;;;;;;;3.67;47.10;101641.75;5029061;28;20037;-71
2024/03/18 03:12:28;;;;;;;3.85;0.65;;;;;;;3.88;46.47;101646.09;5029677;28;20075;-70
2024/03/18 03:14:53;;;;;;;9.52;1.48;;;;;;;3.85;46.55;101644.38;5032829;28;20119;-70
2024/03/18 03:17:19;;;;;;;4.65;0.90;;;;;;;4.01;46.34;101640.91;5020847;28;20049;-70
2024/03/18 03:19:46;;;;;;;7.55;0.70;;;;;;;3.81;46.63;101640.03;5017072;28;20102;-72
2024/03/18 03:22:14;;;;;;;9.73;1.02;;;;;;;3.75;46.45;101645.22;5026847;28;20055;-72
2024/03/18 03:24:48;;;;;;;6.65;0.57;;;;;;;3.47;47.24;101634.84;5032910;28;20029;-72
2024/03/18 03:27:15;;;;;;;2.20;0.75;;;;;;;3.52;47.14;101637.44;5031109;28;21239;-72
2024/03/18 03:29:41;;;;;;;5.22;0.70;;;;;;;3.50;46.82;101632.25;5031267;28;20131;-72
2024/03/18 03:32:07;;;;;;;1.45;0.60;;;;;;;3.80;46.56;101638.31;5032718;28;22985;-74
2024/03/18 03:34:32;;;;;;;5.60;1.08;;;;;;;3.48;47.25;101633.97;5032713;28;20028;-73
2024/03/18 03:36:59;;;;;;;4.30;0.88;;;;;;;3.43;47.13;101635.69;5024807;28;20041;-74
2024/03/18 03:39:27;;;;;;;6.20;1.13;;;;;;;3.79;46.50;101634.00;5031841;28;20032;-76
2024/03/18 03:41:55;;;;;;;4.05;1.67;;;;;;;3.54;46.95;101626.22;5031016;28;20024;-73
2024/03/18 03:44:21;;;;;;;2.78;0.70;;;;;;;3.85;46.43;101626.25;5029651;28;20036;-74
2024/03/18 03:46:50;;;;;;;6.63;1.75;;;;;;;3.80;46.57;101622.78;5033331;28;20036;-74
2024/03/18 03:49:21;;;;;;;5.35;0.88;;;;;;;3.91;46.37;101631.41;5023843;28;20044;-72
2024/03/18 03:51:49;;;;;;;7.65;1.20;;;;;;;3.88;46.63;101631.41;5018196;28;20048;-71
2024/03/18 03:54:14;;;;;;;5.22;0.70;;;;;;;3.90;46.68;101628.84;5015350;28;20056;-71
2024/03/18 03:56:47;;;;;;;4.95;0.80;;;;;;;3.86;46.72;101617.63;5038332;28;20095;-71
2024/03/18 03:59:15;;;;;;;5.85;0.95;;;;;;;3.63;47.03;101622.78;5013776;28;20048;-70
2024/03/18 04:01:44;;;;;;;6.43;1.42;;;;;;;3.50;47.53;101624.50;5033870;28;20075;-71
2024/03/18 04:04:10;;;;;;;5.70;0.82;;;;;;;3.72;46.82;101625.38;5023546;28;20728;-71
2024/03/18 04:06:38;;;;;;;5.38;1.20;;;;;;;3.74;46.60;101620.22;5015408;28;20028;-72
2024/03/18 04:09:06;;;;;;;9.52;1.30;;;;;;;3.68;46.65;101623.66;5023066;28;20037;-72
2024/03/18 04:11:31;;;;;;;4.90;0.77;;;;;;;3.77;46.58;101613.31;5030388;28;20074;-71
2024/03/18 04:13:57;;;;;;;8.55;1.05;;;;;;;3.75;46.74;101616.75;5025174;28;20712;-73
2024/03/18 04:16:24;;;;;;;8.57;1.20;;;;;;;3.59;46.95;101609.00;5033306;28;20089;-71
2024/03/18 04:18:52;;;;;;;4.28;1.10;;;;;;;3.82;46.59;101607.28;5025171;28;20040;-71
2024/03/18 04:21:18;;;;;;;10.68;1.50;;;;;;;3.88;46.47;101610.72;5026391;28;21522;-71
2024/03/18 04:23:43;;;;;;;5.32;0.90;;;;;;;3.62;46.99;101612.44;5048793;28;20654;-72
2024/03/18 04:26:10;;;;;;;9.07;1.05;;;;;;;3.81;46.74;101611.59;5027920;28;20079;-72
2024/03/18 04:28:36;;;;;;;5.20;0.80;;;;;;;3.92;46.16;101612.47;5032230;28;20094;-71
2024/03/18 04:31:11;;;;;;;3.25;1.20;;;;;;;3.76;46.67;101615.88;5024886;28;20028;-71
2024/03/18 04:33:38;;;;;;;4.60;1.42;;;;;;;3.85;46.57;101604.69;5034012;28;20438;-72
2024/03/18 04:36:04;;;;;;;2.80;0.82;;;;;;;3.76;46.99;101608.13;5026226;28;20456;-72
2024/03/18 04:38:30;;;;;;;6.70;1.45;;;;;;;3.90;46.19;101606.41;5037835;28;20058;-73
2024/03/18 04:41:06;;;;;;;4.57;0.90;;;;;;;3.91;46.16;101597.78;5034497;28;20036;-72
2024/03/18 04:43:39;;;;;;;3.00;0.80;;;;;;;3.84;46.47;101603.81;5023392;28;20037;-67
2024/03/18 04:46:05;;;;;;;8.43;1.30;;;;;;;3.64;46.58;101600.38;5022526;28;20364;-66
2024/03/18 04:48:33;;;;;;;5.82;1.15;;;;;;;3.75;46.67;101596.06;5032133;28;20051;-67
2024/03/18 04:51:01;;;;;;;3.83;0.90;;;;;;;3.67;47.03;101601.25;5024899;28;20251;-68
2024/03/18 04:53:28;;;;;;;3.05;0.60;;;;;;;3.62;47.11;101600.38;5033015;28;20667;-67
2024/03/18 04:55:54;;;;;;;9.02;0.85;;;;;;;3.73;46.80;101605.56;5026951;28;20718;-67
2024/03/18 04:58:19;;;;;;;6.70;0.90;;;;;;;3.71;46.56;101596.94;5026927;28;20864;-67
2024/03/18 05:00:47;;;;;;;6.68;0.98;;;;;;;3.65;46.96;101596.91;5024666;28;20517;-67
2024/03/18 05:03:12;;;;;;;3.45;0.82;;;;;;;3.76;46.68;101597.78;5017119;28;20093;-67
2024/03/18 05:05:46;;;;;;;10.35;1.67;;;;;;;3.69;46.76;101603.81;5029890;28;20045;-67
2024/03/18 05:08:14;;;;;;;4.97;1.40;;;;;;;3.87;46.35;101601.22;5015099;28;20037;-67
2024/03/18 05:10:40;;;;;;;8.57;1.33;;;;;;;3.67;46.43;101603.84;5030523;28;20033;-67
2024/03/18 05:13:08;;;;;;;5.72;1.38;;;;;;;3.60;46.83;101604.69;5020547;28;20246;-67
2024/03/18 05:15:33;;;;;;;3.50;0.95;;;;;;;3.67;46.65;101595.19;5030717;28;20035;-67
2024/03/18 05:18:02;;;;;;;5.45;1.20;;;;;;;3.83;46.51;101599.53;5012898;28;20481;-67
2024/03/18 05:20:27;;;;;;;4.75;0.95;;;;;;;3.81;46.22;101598.66;5038607;28;20033;-68
2024/03/18 05:22:55;;;;;;;3.50;1.52;;;;;;;3.56;46.89;101601.25;5024609;28;20051;-74
2024/03/18 05:25:25;;;;;;;5.57;1.17;;;;;;;3.75;46.23;101603.84;5027870;28;20063;-74
2024/03/18 05:27:53;;;;;;;1.33;0.70;;;;;;;3.55;45.98;101606.41;5025780;28;20062;-74
2024/03/18 05:30:21;;;;;;;4.72;0.90;;;;;;;3.58;46.36;101598.63;5011160;28;20185;-74
2024/03/18 05:32:47;;;;;;;4.95;0.98;;;;;;;3.79;46.16;101597.81;5012708;28;20049;-75
2024/03/18 05:35:15;;;;;;;5.15;1.92;;;;;;;3.87;45.74;101593.47;5028282;28;20110;-74
2024/03/18 05:37:41;;;;;;;16.45;1.50;;;;;;;3.54;46.24;101595.22;5031545;28;20136;-75
2024/03/18 05:40:06;;;;;;;5.50;0.85;;;;;;;3.53;46.45;101596.06;5016314;28;20470;-75
2024/03/18 05:42:35;;;;;;;8.85;1.10;;;;;;;3.50;46.78;101598.66;5022159;28;20875;-72
2024/03/18 05:45:01;;;;;;;5.32;1.17;;;;;;;3.48;46.53;101600.38;5025592;28;20050;-72
2024/03/18 05:47:26;;;;;;;2.95;0.90;;;;;;;3.65;46.54;101594.34;5010730;28;20045;-72
2024/03/18 05:49:54;;;;;;;6.30;1.25;;;;;;;3.21;46.88;101592.53;5027334;28;20409;-73
2024/03/18 05:52:20;;;;;;;2.20;0.85;;;;;;;3.47;46.13;101592.59;5016379;28;20041;-72
2024/03/18 05:54:46;;;;;;;3.45;0.98;;;;;;;3.37;46.57;101589.16;5036543;28;20941;-72
2024/03/18 05:57:12;;;;;;;10.38;1.52;;;;;;;3.38;46.29;101593.44;5026730;28;20029;-73
2024/03/18 05:59:43;;;;;;;6.47;1.08;;;;;;;3.20;46.77;101596.81;5040409;28;20036;-69
2024/03/18 06:02:11;;;;;;;5.72;1.02;;;;;;;3.48;46.37;101595.19;5003739;27;20028;-67
2024/03/18 06:04:38;;;;;;;6.10;1.02;;;;;;;3.23;46.53;101594.28;5057208;27;20393;-69
2024/03/18 06:07:05;;;;;;;6.95;1.45;;;;;;;3.53;46.08;101603.81;5013471;28;20036;-74
2024/03/18 06:09:34;;;;;;;3.70;0.60;;;;;;;3.57;46.01;101599.50;5047889;28;20039;-73
2024/03/18 06:11:59;;;;;;;4.55;0.60;;;;;;;3.35;46.29;101593.47;5028121;28;20123;-72
2024/03/18 06:14:25;;;;;;;2.30;0.55;;;;;;;3.18;47.09;101596.00;5010454;28;20836;-70
2024/03/18 06:16:50;;;;;;;5.35;1.20;;;;;;;3.28;47.06;101594.28;5028754;28;20033;-71
2024/03/18 06:19:21;;;;;;;7.18;1.13;;;;;;;3.14;47.36;101604.59;5049604;27;20129;-70
2024/03/18 06:21:48;;;;;;;13.52;1.02;;;;;;;3.10;47.75;101590.78;5032772;28;20628;-76
2024/03/18 06:24:22;;;;;;;4.00;1.10;;;;;;;3.02;48.29;101595.06;5029431;28;20043;-74
2024/03/18 06:26:48;;;;;;;6.88;1.63;;;;;;;2.96;48.31;101595.91;5031585;28;20032;-71
2024/03/18 06:29:16;;;;;;;4.05;1.25;;;;;;;3.15;47.84;101596.81;5031296;28;20039;-71
2024/03/18 06:31:45;;;;;;;4.45;1.05;;;;;;;3.11;48.13;101597.69;5032547;28;20036;-72
2024/03/18 06:34:15;;;;;;;3.07;0.90;;;;;;;3.37;47.70;101596.91;5021074;28;20044;-71
2024/03/18 06:36:41;;;;;;;6.28;1.65;;;;;;;3.31;48.05;101596.88;5030685;28;20024;-72
2024/03/18 06:39:12;;;;;;;6.80;1.02;;;;;;;3.26;48.21;101586.50;5036872;28;20451;-71
2024/03/18 06:41:38;;;;;;;4.45;1.20;;;;;;;3.22;48.89;101586.50;5023402;28;20024;-72
2024/03/18 06:44:03;;;;;;;4.25;1.83;;;;;;;3.03;49.28;101590.78;5037125;28;20086;-73
2024/03/18 06:46:29;;;;;;;8.10;1.92;;;;;;;3.22;48.98;101586.50;5018418;28;20029;-71
2024/03/18 06:48:57;;;;;;;4.60;1.38;;;;;;;3.08;49.55;101584.75;5028088;28;20453;-69
2024/03/18 06:51:23;;;;;;;7.35;1.70;;;;;;;3.43;49.02;101580.56;5029487;28;20048;-69
2024/03/18 06:53:51;;;;;;;8.10;2.42;;;;;;;3.31;49.22;101586.56;5030634;28;20036;-71
2024/03/18 06:56:19;;;;;;;4.18;1.35;;;;;;;3.39;49.47;101590.03;5029862;28;20030;-69
2024/03/18 06:58:45;;;;;;;5.15;1.58;;;;;;;3.43;49.06;101590.91;5025994;28;20044;-70
2024/03/18 07:01:11;;;;;;;8.10;1.15;;;;;;;3.79;48.39;101587.47;5029011;28;20037;-74
2024/03/18 07:03:37;;;;;;;3.05;1.40;;;;;;;3.71;48.06;101595.19;5029911;28;20629;-68
2024/03/18 07:06:04;;;;;;;4.50;1.13;;;;;;;3.63;48.08;101594.34;5032909;28;20462;-71
2024/03/18 07:08:29;;;;;;;7.55;2.15;;;;;;;3.68;48.02;101602.13;5021979;28;20538;-71
2024/03/18 07:10:57;;;;;;;5.00;1.10;;;;;;;3.82;47.55;101608.13;5032621;28;20025;-71
2024/03/18 07:13:23;;;;;;;10.93;0.80;;;;;;;3.78;47.67;101596.06;5018599;28;20515;-71
2024/03/18 07:15:50;;;;;;;6.45;1.75;;;;;;;3.95;47.26;101611.59;5030819;28;20518;-71
2024/03/18 07:18:17;;;;;;;5.40;1.27;;;;;;;4.05;47.17;101599.50;5024741;28;20048;-71
2024/03/18 07:20:44;;;;;;;6.75;1.52;;;;;;;3.94;46.91;101602.97;5031508;28;20035;-78
2024/03/18 07:23:13;;;;;;;6.28;1.45;;;;;;;3.94;46.92;101605.56;5017286;28;20093;-77
2024/03/18 07:25:39;;;;;;;2.92;0.90;;;;;;;3.90;47.08;101602.97;5030834;28;20033;-73
2024/03/18 07:28:06;;;;;;;3.70;1.55;;;;;;;4.13;46.69;101601.22;5039341;28;20028;-73
2024/03/18 07:30:31;;;;;;;6.47;1.73;;;;;;;4.24;46.49;101608.09;5040954;27;20391;-73
2024/03/18 07:33:07;;;;;;;3.65;1.00;;;;;;;3.86;47.06;101601.25;5034005;28;20044;-72
2024/03/18 07:35:33;;;;;;;8.13;1.35;;;;;;;4.42;46.05;101597.72;5025791;28;20562;-72
2024/03/18 07:38:01;;;;;;;3.47;1.25;;;;;;;4.34;45.99;101602.91;5030638;28;20040;-72
2024/03/18 07:40:26;;;;;;;7.55;2.42;;;;;;;4.24;46.34;101605.53;5032043;28;20029;-68
2024/03/18 07:42:52;;;;;;;2.97;1.08;;;;;;;4.31;46.21;101605.50;5033498;28;20913;-70
2024/03/18 07:45:17;;;;;;;6.40;1.20;;;;;;;3.84;46.66;101603.81;5022551;28;20033;-69
2024/03/18 07:47:48;;;;;;;3.17;0.95;;;;;;;3.76;46.92;101608.13;5032336;28;20603;-71
2024/03/18 07:50:13;;;;;;;4.25;1.27;;;;;;;3.47;47.40;101602.94;5024864;28;20043;-73
2024/03/18 07:52:42;;;;;;;7.20;1.67;;;;;;;3.33;48.02;101601.19;5029812;28;20064;-72
2024/03/18 07:55:15;;;;;;;7.70;1.38;;;;;;;3.10;48.50;101611.44;5030669;28;20482;-72
2024/03/18 07:57:48;;;;;;;5.85;1.33;;;;;;;3.39;48.33;101610.69;5027556;28;20109;-72
2024/03/18 08:00:15;;;;;;;9.25;1.65;;;;;;;3.75;47.66;101609.00;5026020;28;20037;-72
2024/03/18 08:02:41;;;;;;;5.85;1.55;;;;;;;3.68;47.66;101609.88;5032180;28;20064;-73
2024/03/18 08:05:08;;;;;;;4.82;1.58;;;;;;;3.86;47.78;101607.28;5031695;28;20111;-71
2024/03/18 08:07:41;;;;;;;5.10;1.50;;;;;;;4.19;48.08;101608.97;5017537;28;20525;-71
2024/03/18 08:10:07;;;;;;;7.35;1.00;;;;;;;3.69;48.61;101614.16;5051803;28;20044;-72
2024/03/18 08:12:35;;;;;;;7.00;1.55;;;;;;;3.78;48.86;101620.22;5024121;28;21103;-71
2024/03/18 08:15:03;;;;;;;6.05;1.88;;;;;;;3.80;48.95;101617.63;5028836;28;20407;-71
2024/03/18 08:17:28;;;;;;;3.97;1.00;;;;;;;4.12;48.45;101614.13;5020543;28;20068;-71
2024/03/18 08:19:54;;;;;;;5.97;1.63;;;;;;;4.32;48.33;101611.53;5030204;28;20227;-71
2024/03/18 08:22:19;;;;;;;5.18;1.63;;;;;;;4.14;48.30;101609.84;5011218;28;20067;-71
2024/03/18 08:24:49;;;;;;;3.63;1.30;;;;;;;3.97;48.01;101613.31;5030684;28;20406;-71
2024/03/18 08:27:17;;;;;;;5.20;1.58;;;;;;;3.95;47.91;101612.44;5026667;28;20135;-71
2024/03/18 08:29:45;;;;;;;5.80;1.95;;;;;;;3.89;47.70;101624.50;5031661;28;20036;-71
2024/03/18 08:32:13;;;;;;;6.78;1.75;;;;;;;4.04;47.84;101621.06;5015824;28;20037;-71
2024/03/18 08:34:43;;;;;;;5.20;1.83;;;;;;;4.61;47.37;101616.66;5027160;28;20056;-71
2024/03/18 08:37:08;;;;;;;6.03;1.63;;;;;;;4.80;46.78;101620.03;5024024;28;20291;-71
2024/03/18 08:39:34;;;;;;;6.45;1.13;;;;;;;4.90;46.38;101620.88;5022544;28;20512;-72
2024/03/18 08:42:00;;;;;;;7.18;1.60;;;;;;;5.01;46.21;101625.16;5014507;28;20423;-71
2024/03/18 08:44:25;;;;;;;3.92;1.15;;;;;;;5.14;45.85;101625.94;5025537;28;20052;-72
2024/03/18 08:46:51;;;;;;;4.82;1.77;;;;;;;5.11;45.97;101628.56;5027950;28;20686;-71
2024/03/18 08:49:19;;;;;;;8.27;2.20;;;;;;;4.97;46.34;101632.94;5025995;28;20506;-71
2024/03/18 08:51:49;;;;;;;5.82;1.50;;;;;;;4.88;45.79;101628.66;5030222;28;20086;-71
2024/03/18 08:54:20;;;;;;;3.85;1.25;;;;;;;4.63;46.24;101628.72;5027246;28;20105;-71
2024/03/18 08:56:45;;;;;;;5.03;1.75;;;;;;;4.81;46.43;101630.38;5032409;28;20032;-71
2024/03/18 08:59:11;;;;;;;8.73;2.28;;;;;;;5.10;46.20;101632.03;5026678;28;20519;-72
2024/03/18 09:01:37;;;;;;;7.90;1.73;;;;;;;4.82;45.76;101629.50;5012499;28;22349;-71
2024/03/18 09:04:05;;;;;;;8.35;2.95;;;;;;;4.93;46.07;101636.41;5022638;28;20036;-71
2024/03/18 09:06:32;;;;;;;4.50;1.63;;;;;;;4.77;46.68;101636.44;5023177;28;22092;-71
2024/03/18 09:08:58;;;;;;;5.43;2.78;;;;;;;4.52;46.53;101633.06;5025609;28;20051;-71
2024/03/18 09:11:23;;;;;;;7.28;1.95;;;;;;;4.67;45.98;101628.69;5024686;28;20550;-72
2024/03/18 09:13:49;;;;;;;3.42;1.73;;;;;;;5.36;45.33;101631.00;5027462;28;20545;-72
2024/03/18 09:16:14;;;;;;;5.57;1.58;;;;;;;5.20;45.42;101630.22;5026677;28;20517;-72
2024/03/18 09:18:40;;;;;;;10.00;1.85;;;;;;;5.62;44.43;101629.09;5039354;28;21030;-71
2024/03/18 09:21:05;;;;;;;6.70;2.03;;;;;;;5.78;44.19;101634.19;5034201;28;20115;-71
2024/03/18 09:23:31;;;;;;;11.80;2.25;;;;;;;5.61;44.70;101632.59;5022839;28;20044;-72
2024/03/18 09:25:59;;;;;;;5.03;2.15;;;;;;;5.77;44.49;101625.53;5027524;28;20117;-71
2024/03/18 09:28:27;;;;;;;6.50;1.55;;;;;;;5.80;44.34;101624.66;5020672;28;20123;-72
2024/03/18 09:31:03;;;;;;;6.68;2.05;;;;;;;5.91;44.36;101635.81;5027858;28;20339;-72
2024/03/18 09:33:29;;;;;;;7.82;2.15;;;;;;;5.95;43.83;101639.22;5022693;28;20045;-72
2024/03/18 09:35:55;;;;;;;5.30;1.98;;;;;;;5.61;44.20;101627.41;5028285;28;20029;-72
2024/03/18 09:38:21;;;;;;;9.25;1.90;;;;;;;5.56;44.19;101631.72;5014696;28;20045;-72
2024/03/18 09:40:49;;;;;;;6.95;1.55;;;;;;;5.76;44.18;101625.53;5028006;28;20029;-72
2024/03/18 09:43:15;;;;;;;5.93;2.05;;;;;;;5.94;44.65;101630.56;5025096;28;20101;-71
2024/03/18 09:45:45;;;;;;;5.60;2.25;;;;;;;5.73;44.63;101625.59;5013447;28;20422;-71
2024/03/18 09:48:21;;;;;;;2.05;1.15;;;;;;;5.72;44.94;101623.84;5030546;28;20040;-71
2024/03/18 09:50:49;;;;;;;7.38;2.40;;;;;;;5.58;45.39;101627.41;5025231;28;20060;-71
2024/03/18 09:53:17;;;;;;;5.05;1.60;;;;;;;5.52;45.58;101629.16;5019130;28;20421;-71
2024/03/18 09:55:45;;;;;;;5.07;1.67;;;;;;;5.87;45.74;101634.09;5020590;28;20668;-71
2024/03/18 09:58:16;;;;;;;9.63;2.40;;;;;;;5.76;45.05;101625.53;5029936;28;20048;-71
2024/03/18 10:00:43;;;;;;;10.45;2.33;;;;;;;5.63;45.28;101628.22;5012679;28;20048;-71
2024/03/18 10:03:20;;;;;;;5.25;1.88;;;;;;;5.93;45.34;101631.47;5027219;28;20056;-70
2024/03/18 10:05:49;;;;;;;5.03;2.15;;;;;;;6.02;44.98;101631.38;5021575;28;20106;-71
2024/03/18 10:08:16;;;;;;;7.53;1.90;;;;;;;6.06;45.13;101633.09;5022142;28;20088;-72
2024/03/18 10:10:46;;;;;;;9.65;2.13;;;;;;;6.00;44.96;101629.69;5020377;28;20910;-71
2024/03/18 10:13:16;;;;;;;5.85;1.98;;;;;;;6.00;45.25;101627.09;5030526;28;20142;-71
2024/03/18 10:15:50;;;;;;;5.72;2.30;;;;;;;6.07;44.77;101618.38;5010477;28;20033;-71
2024/03/18 10:18:16;;;;;;;3.83;1.70;;;;;;;6.20;44.41;101625.16;5030311;28;20139;-72
2024/03/18 10:20:41;;;;;;;6.68;2.38;;;;;;;6.17;44.46;101622.59;5020167;28;20044;-71
2024/03/18 10:23:16;;;;;;;5.50;1.58;;;;;;;6.21;44.71;101623.41;5037755;28;20623;-71
2024/03/18 10:25:44;;;;;;;7.55;3.17;;;;;;;6.36;44.42;101615.50;5026946;28;20564;-71
2024/03/18 10:28:13;;;;;;;6.63;2.13;;;;;;;6.60;44.42;101626.53;5015775;28;20089;-72
2024/03/18 10:30:50;;;;;;;6.13;2.97;;;;;;;6.64;43.89;101620.38;5026300;28;20040;-71
2024/03/18 10:33:17;;;;;;;3.70;2.42;;;;;;;6.53;44.18;101620.53;5030244;28;20044;-71
2024/03/18 10:35:49;;;;;;;7.53;2.10;;;;;;;6.35;44.33;101626.78;5018093;28;20127;-71
2024/03/18 10:38:24;;;;;;;5.38;2.03;;;;;;;6.16;44.80;101627.81;5028083;28;20435;-71
2024/03/18 10:40:56;;;;;;;7.03;2.22;;;;;;;6.09;45.51;101632.19;5028849;28;20032;-71
2024/03/18 10:43:34;;;;;;;8.18;2.65;;;;;;;6.46;44.90;101616.25;5043974;28;20312;-72
2024/03/18 10:46:02;;;;;;;9.65;2.38;;;;;;;6.47;44.73;101618.84;5032456;28;20114;-73
2024/03/18 10:48:28;;;;;;;6.07;3.20;;;;;;;6.46;45.14;101624.94;5024747;28;20041;-72
2024/03/18 10:50:55;;;;;;;3.97;2.28;;;;;;;6.38;45.26;101615.50;5028826;28;20051;-71
2024/03/18 10:53:27;;;;;;;6.68;2.38;;;;;;;6.72;45.05;101626.38;5031207;28;20128;-71
2024/03/18 10:55:53;;;;;;;7.13;2.53;;;;;;;7.01;44.72;101617.34;5028518;28;20033;-71
2024/03/18 10:58:30;;;;;;;6.50;2.45;;;;;;;6.87;44.20;101625.31;5032136;28;20037;-71
2024/03/18 11:00:59;;;;;;;5.50;2.20;;;;;;;7.02;44.22;101624.25;5030782;28;20068;-71
2024/03/18 11:03:26;;;;;;;5.20;2.30;;;;;;;7.12;44.07;101623.25;5028750;28;20179;-71
2024/03/18 11:05:57;;;;;;;6.55;2.92;;;;;;;7.12;43.99;101618.06;5026321;28;20048;-71
2024/03/18 11:08:26;;;;;;;7.50;3.40;;;;;;;7.29;44.13;101621.28;5031899;28;20045;-71
2024/03/18 11:10:57;;;;;;;6.07;2.55;;;;;;;7.33;43.56;101620.38;5028472;28;20459;-70
2024/03/18 11:13:34;;;;;;;6.80;2.42;;;;;;;7.20;44.56;101623.13;5021150;28;20037;-70
2024/03/18 11:16:07;;;;;;;6.22;2.50;;;;;;;7.07;44.58;101617.28;5028215;28;20028;-71
2024/03/18 11:18:47;;;;;;;8.77;2.53;;;;;;;7.26;44.60;101613.50;5029734;28;20044;-71
2024/03/18 11:21:18;;;;;;;5.65;2.53;;;;;;;7.19;44.13;101611.88;5033556;28;20042;-72
2024/03/18 11:23:56;;;;;;;5.00;2.92;;;;;;;7.44;44.43;101612.38;5024226;28;20049;-70
2024/03/18 11:26:25;;;;;;;7.93;2.83;;;;;;;7.62;43.91;101618.22;5029699;28;20032;-69
2024/03/18 11:29:03;;;;;;;11.85;3.63;;;;;;;7.43;43.91;101620.22;5015664;28;20039;-69
2024/03/18 11:31:36;;;;;;;6.85;3.60;;;;;;;7.20;45.02;101618.81;5027189;28;20189;-70
2024/03/18 11:34:08;;;;;;;6.70;3.85;;;;;;;7.31;44.81;101611.72;5022948;28;20593;-72
2024/03/18 11:36:39;;;;;;;7.68;3.47;;;;;;;7.60;44.19;101607.88;5021359;28;20071;-70